Station Historical Data
Daily Summary for March 22, 2012 Units:  Both    English   Metric
« Previous Day
Next Day »
Daily Weekly Monthly Yearly Custom
  High: Low: Average:
Temperature: 70.5 °F /  21.4 °C 61.6 °F /  16.4 °C 66 °F /  18.9 °C
Dew Point: 63.2 °F /  17.3 °C 58.5 °F /  14.7 °C 60.7 °F /  15.9 °C
Humidity: 93% 67% 84%
Wind Speed: 21.0mph /  33.8km/h - 8mph /  12.9km/h
Wind Gust: 26.0mph /  41.8km/h - -
Wind- - SE
Pressure: 30.08 in /  1018.5 hPa 29.93 in /  1013.4 hPa -
Precipitation: 0.24 in /  6.1 mm    
Historical Graphs
 
 
Tabular Data for March 22, 2012
Time Temperature Dew Point Pressure Wind Wind Speed Wind Gust Humidity Rainfall Rate (Hourly) Conditions
00:00 70.2 °F /  21.2 °C 58.7 °F /  14.8 °C 30.03in /  1016.8hPa ESE 8.0mph /  12.9km/h 11.0mph /  17.7km/h 67% 0.00in /  0mm
00:01 70.2 °F /  21.2 °C 58.7 °F /  14.8 °C 30.03in /  1016.8hPa SE 6.0mph /  9.7km/h 11.0mph /  17.7km/h 67% 0.00in /  0mm
00:06 70.3 °F /  21.3 °C 58.8 °F /  14.9 °C 30.03in /  1016.8hPa ESE 12.0mph /  19.3km/h 12.0mph /  19.3km/h 67% 0.00in /  0mm
00:11 70.4 °F /  21.3 °C 58.9 °F /  14.9 °C 30.03in /  1016.8hPa SE 12.0mph /  19.3km/h 12.0mph /  19.3km/h 67% 0.00in /  0mm
00:16 70.3 °F /  21.3 °C 58.8 °F /  14.9 °C 30.03in /  1016.8hPa SE 8.0mph /  12.9km/h 13.0mph /  20.9km/h 67% 0.00in /  0mm
00:21 70.5 °F /  21.4 °C 59.0 °F /  15 °C 30.03in /  1016.8hPa SE 10.0mph /  16.1km/h 12.0mph /  19.3km/h 67% 0.00in /  0mm
00:26 70.4 °F /  21.3 °C 58.9 °F /  14.9 °C 30.03in /  1016.8hPa ESE 12.0mph /  19.3km/h 12.0mph /  19.3km/h 67% 0.00in /  0mm
00:31 70.3 °F /  21.3 °C 58.8 °F /  14.9 °C 30.03in /  1016.8hPa SE 10.0mph /  16.1km/h 13.0mph /  20.9km/h 67% 0.00in /  0mm
00:36 70.2 °F /  21.2 °C 58.7 °F /  14.8 °C 30.03in /  1016.8hPa SE 7.0mph /  11.3km/h 11.0mph /  17.7km/h 67% 0.00in /  0mm
00:41 70.2 °F /  21.2 °C 58.7 °F /  14.8 °C 30.03in /  1016.8hPa ESE 9.0mph /  14.5km/h 14.0mph /  22.5km/h 67% 0.00in /  0mm
00:46 70.2 °F /  21.2 °C 58.7 °F /  14.8 °C 30.03in /  1016.8hPa ESE 10.0mph /  16.1km/h 13.0mph /  20.9km/h 67% 0.00in /  0mm
00:51 70.1 °F /  21.2 °C 59.1 °F /  15.1 °C 30.03in /  1016.8hPa SE 7.0mph /  11.3km/h 12.0mph /  19.3km/h 68% 0.00in /  0mm
00:56 70.1 °F /  21.2 °C 59.1 °F /  15.1 °C 30.03in /  1016.8hPa ESE 9.0mph /  14.5km/h 12.0mph /  19.3km/h 68% 0.00in /  0mm
01:01 70.0 °F /  21.1 °C 58.5 °F /  14.7 °C 30.03in /  1016.8hPa ESE 12.0mph /  19.3km/h 16.0mph /  25.7km/h 67% 0.00in /  0mm
01:06 70.1 °F /  21.2 °C 58.7 °F /  14.8 °C 30.03in /  1016.8hPa SE 13.0mph /  20.9km/h 15.0mph /  24.1km/h 67% 0.00in /  0mm
01:11 70.1 °F /  21.2 °C 58.7 °F /  14.8 °C 30.03in /  1016.8hPa ESE 11.0mph /  17.7km/h 14.0mph /  22.5km/h 67% 0.00in /  0mm
01:16 70.1 °F /  21.2 °C 59.1 °F /  15.1 °C 30.03in /  1016.8hPa SE 9.0mph /  14.5km/h 15.0mph /  24.1km/h 68% 0.00in /  0mm
01:21 70.0 °F /  21.1 °C 59.0 °F /  15 °C 30.03in /  1016.8hPa ESE 9.0mph /  14.5km/h 11.0mph /  17.7km/h 68% 0.00in /  0mm
01:26 69.9 °F /  21.1 °C 58.9 °F /  14.9 °C 30.03in /  1016.8hPa SE 5.0mph /  8km/h 13.0mph /  20.9km/h 68% 0.00in /  0mm
01:31 69.8 °F /  21 °C 58.8 °F /  14.9 °C 30.03in /  1016.8hPa ESE 9.0mph /  14.5km/h 14.0mph /  22.5km/h 68% 0.00in /  0mm
01:36 69.9 °F /  21.1 °C 58.9 °F /  14.9 °C 30.03in /  1016.8hPa ESE 8.0mph /  12.9km/h 12.0mph /  19.3km/h 68% 0.00in /  0mm
01:41 70.0 °F /  21.1 °C 59.0 °F /  15 °C 30.03in /  1016.8hPa SE 7.0mph /  11.3km/h 16.0mph /  25.7km/h 68% 0.00in /  0mm
01:46 69.9 °F /  21.1 °C 58.9 °F /  14.9 °C 30.03in /  1016.8hPa SE 9.0mph /  14.5km/h 14.0mph /  22.5km/h 68% 0.00in /  0mm
01:51 69.8 °F /  21 °C 58.8 °F /  14.9 °C 30.03in /  1016.8hPa ESE 9.0mph /  14.5km/h 12.0mph /  19.3km/h 68% 0.00in /  0mm
01:56 69.9 °F /  21.1 °C 58.9 °F /  14.9 °C 30.03in /  1016.8hPa ESE 9.0mph /  14.5km/h 15.0mph /  24.1km/h 68% 0.00in /  0mm
02:01 69.8 °F /  21 °C 58.8 °F /  14.9 °C 30.02in /  1016.5hPa ESE 12.0mph /  19.3km/h 15.0mph /  24.1km/h 68% 0.00in /  0mm
02:06 69.8 °F /  21 °C 58.8 °F /  14.9 °C 30.02in /  1016.5hPa ESE 12.0mph /  19.3km/h 12.0mph /  19.3km/h 68% 0.00in /  0mm
02:12 69.9 °F /  21.1 °C 58.9 °F /  14.9 °C 30.03in /  1016.8hPa ESE 10.0mph /  16.1km/h 19.0mph /  30.6km/h 68% 0.00in /  0mm
02:17 69.9 °F /  21.1 °C 58.9 °F /  14.9 °C 30.02in /  1016.5hPa ESE 10.0mph /  16.1km/h 12.0mph /  19.3km/h 68% 0.00in /  0mm
02:22 70.0 °F /  21.1 °C 59.0 °F /  15 °C 30.03in /  1016.8hPa SE 11.0mph /  17.7km/h 18.0mph /  29km/h 68% 0.00in /  0mm
02:27 69.9 °F /  21.1 °C 59.3 °F /  15.2 °C 30.04in /  1017.2hPa SW 7.0mph /  11.3km/h 14.0mph /  22.5km/h 69% 0.00in /  0mm
02:32 69.3 °F /  20.7 °C 59.1 °F /  15.1 °C 30.03in /  1016.8hPa SW 5.0mph /  8km/h 5.0mph /  8km/h 70% 0.00in /  0mm
02:37 68.9 °F /  20.5 °C 59.1 °F /  15.1 °C 30.03in /  1016.8hPa South 3.0mph /  4.8km/h 8.0mph /  12.9km/h 71% 0.00in /  0mm
02:42 68.8 °F /  20.4 °C 59.0 °F /  15 °C 30.02in /  1016.5hPa SSW 3.0mph /  4.8km/h 6.0mph /  9.7km/h 71% 0.00in /  0mm
02:47 68.4 °F /  20.2 °C 59.0 °F /  15 °C 30.01in /  1016.1hPa SE 3.0mph /  4.8km/h 5.0mph /  8km/h 72% 0.00in /  0mm
02:52 68.1 °F /  20.1 °C 59.1 °F /  15.1 °C 30.01in /  1016.1hPa SE 7.0mph /  11.3km/h 7.0mph /  11.3km/h 73% 0.00in /  0mm
02:57 68.2 °F /  20.1 °C 58.8 °F /  14.9 °C 30.00in /  1015.8hPa ESE 4.0mph /  6.4km/h 6.0mph /  9.7km/h 72% 0.00in /  0mm
03:02 68.0 °F /  20 °C 59.0 °F /  15 °C 30.00in /  1015.8hPa SE 7.0mph /  11.3km/h 10.0mph /  16.1km/h 73% 0.00in /  0mm
03:07 68.1 °F /  20.1 °C 59.1 °F /  15.1 °C 29.99in /  1015.5hPa ESE 5.0mph /  8km/h 11.0mph /  17.7km/h 73% 0.00in /  0mm
03:12 67.9 °F /  19.9 °C 58.9 °F /  14.9 °C 29.99in /  1015.5hPa SE 6.0mph /  9.7km/h 9.0mph /  14.5km/h 73% 0.00in /  0mm
03:17 67.8 °F /  19.9 °C 58.8 °F /  14.9 °C 29.98in /  1015.1hPa SE 4.0mph /  6.4km/h 8.0mph /  12.9km/h 73% 0.00in /  0mm
03:22 67.8 °F /  19.9 °C 58.8 °F /  14.9 °C 29.97in /  1014.8hPa SE 7.0mph /  11.3km/h 10.0mph /  16.1km/h 73% 0.00in /  0mm
03:27 68.0 °F /  20 °C 59.0 °F /  15 °C 29.97in /  1014.8hPa SE 10.0mph /  16.1km/h 14.0mph /  22.5km/h 73% 0.00in /  0mm
03:32 68.1 °F /  20.1 °C 59.1 °F /  15.1 °C 29.96in /  1014.4hPa ESE 11.0mph /  17.7km/h 16.0mph /  25.7km/h 73% 0.00in /  0mm
03:37 68.4 °F /  20.2 °C 59.0 °F /  15 °C 29.95in /  1014.1hPa SE 8.0mph /  12.9km/h 14.0mph /  22.5km/h 72% 0.00in /  0mm
03:42 68.4 °F /  20.2 °C 59.0 °F /  15 °C 29.94in /  1013.8hPa SE 8.0mph /  12.9km/h 14.0mph /  22.5km/h 72% 0.00in /  0mm
03:47 68.5 °F /  20.3 °C 59.1 °F /  15.1 °C 29.94in /  1013.8hPa SE 13.0mph /  20.9km/h 15.0mph /  24.1km/h 72% 0.00in /  0mm
03:53 68.5 °F /  20.3 °C 59.1 °F /  15.1 °C 29.94in /  1013.8hPa ESE 13.0mph /  20.9km/h 19.0mph /  30.6km/h 72% 0.00in /  0mm
03:58 68.6 °F /  20.3 °C 59.2 °F /  15.1 °C 29.94in /  1013.8hPa ESE 10.0mph /  16.1km/h 13.0mph /  20.9km/h 72% 0.00in /  0mm
04:03 68.6 °F /  20.3 °C 59.2 °F /  15.1 °C 29.93in /  1013.4hPa ESE 10.0mph /  16.1km/h 14.0mph /  22.5km/h 72% 0.00in /  0mm
04:08 68.6 °F /  20.3 °C 59.2 °F /  15.1 °C 29.93in /  1013.4hPa SE 12.0mph /  19.3km/h 14.0mph /  22.5km/h 72% 0.00in /  0mm
04:12 68.6 °F /  20.3 °C 59.2 °F /  15.1 °C 29.94in /  1013.8hPa ESE 10.0mph /  16.1km/h 17.0mph /  27.4km/h 72% 0.00in /  0mm
04:18 68.7 °F /  20.4 °C 59.3 °F /  15.2 °C 29.94in /  1013.8hPa ESE 8.0mph /  12.9km/h 17.0mph /  27.4km/h 72% 0.00in /  0mm
04:23 68.8 °F /  20.4 °C 59.4 °F /  15.2 °C 29.94in /  1013.8hPa ESE 11.0mph /  17.7km/h 17.0mph /  27.4km/h 72% 0.00in /  0mm
04:28 68.7 °F /  20.4 °C 59.3 °F /  15.2 °C 29.95in /  1014.1hPa ESE 9.0mph /  14.5km/h 14.0mph /  22.5km/h 72% 0.00in /  0mm
04:33 68.7 °F /  20.4 °C 59.3 °F /  15.2 °C 29.95in /  1014.1hPa ESE 13.0mph /  20.9km/h 16.0mph /  25.7km/h 72% 0.00in /  0mm
04:38 68.8 °F /  20.4 °C 59.4 °F /  15.2 °C 29.95in /  1014.1hPa SE 7.0mph /  11.3km/h 16.0mph /  25.7km/h 72% 0.00in /  0mm
04:43 68.7 °F /  20.4 °C 59.3 °F /  15.2 °C 29.96in /  1014.4hPa SE 15.0mph /  24.1km/h 15.0mph /  24.1km/h 72% 0.00in /  0mm
04:48 68.6 °F /  20.3 °C 59.2 °F /  15.1 °C 29.96in /  1014.4hPa ESE 9.0mph /  14.5km/h 12.0mph /  19.3km/h 72% 0.00in /  0mm
04:53 68.6 °F /  20.3 °C 59.2 °F /  15.1 °C 29.95in /  1014.1hPa SE 6.0mph /  9.7km/h 14.0mph /  22.5km/h 72% 0.00in /  0mm
04:58 68.4 °F /  20.2 °C 59.4 °F /  15.2 °C 29.96in /  1014.4hPa ESE 10.0mph /  16.1km/h 13.0mph /  20.9km/h 73% 0.00in /  0mm
05:03 68.3 °F /  20.2 °C 59.3 °F /  15.2 °C 29.96in /  1014.4hPa ESE 11.0mph /  17.7km/h 15.0mph /  24.1km/h 73% 0.00in /  0mm
05:08 68.4 °F /  20.2 °C 59.4 °F /  15.2 °C 29.96in /  1014.4hPa SE 6.0mph /  9.7km/h 14.0mph /  22.5km/h 73% 0.00in /  0mm
05:13 68.4 °F /  20.2 °C 59.4 °F /  15.2 °C 29.96in /  1014.4hPa SE 12.0mph /  19.3km/h 13.0mph /  20.9km/h 73% 0.00in /  0mm
05:18 68.5 °F /  20.3 °C 59.1 °F /  15.1 °C 29.97in /  1014.8hPa SE 9.0mph /  14.5km/h 11.0mph /  17.7km/h 72% 0.00in /  0mm
05:23 68.4 °F /  20.2 °C 59.4 °F /  15.2 °C 29.97in /  1014.8hPa SE 6.0mph /  9.7km/h 12.0mph /  19.3km/h 73% 0.00in /  0mm
05:28 68.4 °F /  20.2 °C 59.0 °F /  15 °C 29.97in /  1014.8hPa ESE 10.0mph /  16.1km/h 15.0mph /  24.1km/h 72% 0.00in /  0mm
05:33 68.4 °F /  20.2 °C 59.4 °F /  15.2 °C 29.97in /  1014.8hPa ESE 13.0mph /  20.9km/h 14.0mph /  22.5km/h 73% 0.00in /  0mm
05:38 68.4 °F /  20.2 °C 59.4 °F /  15.2 °C 29.97in /  1014.8hPa SE 6.0mph /  9.7km/h 13.0mph /  20.9km/h 73% 0.00in /  0mm
05:43 68.4 °F /  20.2 °C 59.4 °F /  15.2 °C 29.97in /  1014.8hPa SE 10.0mph /  16.1km/h 11.0mph /  17.7km/h 73% 0.00in /  0mm
05:48 68.3 °F /  20.2 °C 59.3 °F /  15.2 °C 29.97in /  1014.8hPa SE 5.0mph /  8km/h 10.0mph /  16.1km/h 73% 0.00in /  0mm
05:53 68.1 °F /  20.1 °C 59.1 °F /  15.1 °C 29.97in /  1014.8hPa ESE 11.0mph /  17.7km/h 12.0mph /  19.3km/h 73% 0.00in /  0mm
05:58 68.1 °F /  20.1 °C 59.1 °F /  15.1 °C 29.97in /  1014.8hPa SE 6.0mph /  9.7km/h 11.0mph /  17.7km/h 73% 0.00in /  0mm
06:03 68.0 °F /  20 °C 59.4 °F /  15.2 °C 29.97in /  1014.8hPa SE 11.0mph /  17.7km/h 12.0mph /  19.3km/h 74% 0.00in /  0mm
06:08 68.0 °F /  20 °C 59.4 °F /  15.2 °C 29.97in /  1014.8hPa ESE 8.0mph /  12.9km/h 13.0mph /  20.9km/h 74% 0.00in /  0mm
06:13 67.8 °F /  19.9 °C 59.6 °F /  15.3 °C 29.97in /  1014.8hPa SE 10.0mph /  16.1km/h 13.0mph /  20.9km/h 75% 0.00in /  0mm
06:18 67.5 °F /  19.7 °C 59.3 °F /  15.2 °C 29.97in /  1014.8hPa ESE 7.0mph /  11.3km/h 12.0mph /  19.3km/h 75% 0.00in /  0mm
06:23 67.3 °F /  19.6 °C 59.5 °F /  15.3 °C 29.97in /  1014.8hPa ESE 8.0mph /  12.9km/h 13.0mph /  20.9km/h 76% 0.00in /  0mm
06:28 67.2 °F /  19.6 °C 59.4 °F /  15.2 °C 29.97in /  1014.8hPa ESE 10.0mph /  16.1km/h 10.0mph /  16.1km/h 76% 0.00in /  0mm
06:33 67.2 °F /  19.6 °C 59.4 °F /  15.2 °C 29.97in /  1014.8hPa SE 10.0mph /  16.1km/h 10.0mph /  16.1km/h 76% 0.00in /  0mm
06:38 67.2 °F /  19.6 °C 59.4 °F /  15.2 °C 29.97in /  1014.8hPa SE 7.0mph /  11.3km/h 10.0mph /  16.1km/h 76% 0.00in /  0mm
06:43 67.1 °F /  19.5 °C 59.3 °F /  15.2 °C 29.98in /  1015.1hPa SE 8.0mph /  12.9km/h 11.0mph /  17.7km/h 76% 0.00in /  0mm
06:48 67.1 °F /  19.5 °C 59.3 °F /  15.2 °C 29.98in /  1015.1hPa SE 5.0mph /  8km/h 9.0mph /  14.5km/h 76% 0.00in /  0mm
06:53 67.1 °F /  19.5 °C 59.3 °F /  15.2 °C 29.98in /  1015.1hPa ESE 8.0mph /  12.9km/h 10.0mph /  16.1km/h 76% 0.00in /  0mm
06:58 67.1 °F /  19.5 °C 59.3 °F /  15.2 °C 29.98in /  1015.1hPa SE 8.0mph /  12.9km/h 12.0mph /  19.3km/h 76% 0.00in /  0mm
07:03 66.9 °F /  19.4 °C 59.5 °F /  15.3 °C 29.98in /  1015.1hPa ESE 8.0mph /  12.9km/h 10.0mph /  16.1km/h 77% 0.00in /  0mm
07:08 66.9 °F /  19.4 °C 59.5 °F /  15.3 °C 29.98in /  1015.1hPa SE 8.0mph /  12.9km/h 10.0mph /  16.1km/h 77% 0.00in /  0mm
07:13 66.9 °F /  19.4 °C 59.5 °F /  15.3 °C 29.98in /  1015.1hPa SE 8.0mph /  12.9km/h 13.0mph /  20.9km/h 77% 0.00in /  0mm
07:18 66.9 °F /  19.4 °C 59.5 °F /  15.3 °C 29.98in /  1015.1hPa SE 11.0mph /  17.7km/h 11.0mph /  17.7km/h 77% 0.00in /  0mm
07:23 66.9 °F /  19.4 °C 59.8 °F /  15.4 °C 29.99in /  1015.5hPa SE 4.0mph /  6.4km/h 10.0mph /  16.1km/h 78% 0.00in /  0mm
07:28 66.8 °F /  19.3 °C 59.7 °F /  15.4 °C 29.99in /  1015.5hPa SE 7.0mph /  11.3km/h 11.0mph /  17.7km/h 78% 0.00in /  0mm
07:33 66.7 °F /  19.3 °C 59.6 °F /  15.3 °C 30.00in /  1015.8hPa SE 6.0mph /  9.7km/h 10.0mph /  16.1km/h 78% 0.00in /  0mm
07:38 66.7 °F /  19.3 °C 59.6 °F /  15.3 °C 30.00in /  1015.8hPa SSE 9.0mph /  14.5km/h 11.0mph /  17.7km/h 78% 0.00in /  0mm
07:43 66.7 °F /  19.3 °C 59.6 °F /  15.3 °C 30.00in /  1015.8hPa ESE 6.0mph /  9.7km/h 10.0mph /  16.1km/h 78% 0.00in /  0mm
07:48 66.6 °F /  19.2 °C 59.9 °F /  15.5 °C 30.00in /  1015.8hPa SE 6.0mph /  9.7km/h 12.0mph /  19.3km/h 79% 0.00in /  0mm
07:53 66.4 °F /  19.1 °C 60.0 °F /  15.6 °C 30.01in /  1016.1hPa SE 8.0mph /  12.9km/h 8.0mph /  12.9km/h 80% 0.00in /  0mm
07:58 66.3 °F /  19.1 °C 60.0 °F /  15.6 °C 30.01in /  1016.1hPa SE 6.0mph /  9.7km/h 7.0mph /  11.3km/h 80% 0.00in /  0mm
08:03 66.1 °F /  18.9 °C 59.8 °F /  15.4 °C 30.01in /  1016.1hPa ESE 7.0mph /  11.3km/h 7.0mph /  11.3km/h 80% 0.00in /  0mm
08:08 66.0 °F /  18.9 °C 60.0 °F /  15.6 °C 30.01in /  1016.1hPa ESE 6.0mph /  9.7km/h 8.0mph /  12.9km/h 81% 0.00in /  0mm
08:13 66.0 °F /  18.9 °C 60.0 °F /  15.6 °C 30.01in /  1016.1hPa SE 5.0mph /  8km/h 7.0mph /  11.3km/h 81% 0.00in /  0mm
08:19 66.0 °F /  18.9 °C 60.0 °F /  15.6 °C 30.01in /  1016.1hPa SE 6.0mph /  9.7km/h 9.0mph /  14.5km/h 81% 0.00in /  0mm
08:24 66.1 °F /  18.9 °C 60.1 °F /  15.6 °C 30.01in /  1016.1hPa ESE 7.0mph /  11.3km/h 11.0mph /  17.7km/h 81% 0.00in /  0mm
08:29 66.2 °F /  19 °C 60.2 °F /  15.7 °C 30.02in /  1016.5hPa SE 6.0mph /  9.7km/h 10.0mph /  16.1km/h 81% 0.00in /  0mm
08:34 66.3 °F /  19.1 °C 60.3 °F /  15.7 °C 30.01in /  1016.1hPa SE 7.0mph /  11.3km/h 10.0mph /  16.1km/h 81% 0.00in /  0mm
08:39 66.3 °F /  19.1 °C 60.3 °F /  15.7 °C 30.01in /  1016.1hPa ESE 11.0mph /  17.7km/h 11.0mph /  17.7km/h 81% 0.00in /  0mm
08:44 66.3 °F /  19.1 °C 60.3 °F /  15.7 °C 30.02in /  1016.5hPa SE 13.0mph /  20.9km/h 13.0mph /  20.9km/h 81% 0.00in /  0mm
08:49 66.3 °F /  19.1 °C 60.3 °F /  15.7 °C 30.02in /  1016.5hPa SE 7.0mph /  11.3km/h 13.0mph /  20.9km/h 81% 0.00in /  0mm
08:54 66.2 °F /  19 °C 60.2 °F /  15.7 °C 30.02in /  1016.5hPa ESE 8.0mph /  12.9km/h 11.0mph /  17.7km/h 81% 0.00in /  0mm
08:59 66.1 °F /  18.9 °C 60.5 °F /  15.8 °C 30.02in /  1016.5hPa ESE 7.0mph /  11.3km/h 13.0mph /  20.9km/h 82% 0.00in /  0mm
09:04 66.0 °F /  18.9 °C 60.3 °F /  15.7 °C 30.02in /  1016.5hPa SE 8.0mph /  12.9km/h 12.0mph /  19.3km/h 82% 0.00in /  0mm
09:09 66.0 °F /  18.9 °C 60.3 °F /  15.7 °C 30.02in /  1016.5hPa SE 6.0mph /  9.7km/h 9.0mph /  14.5km/h 82% 0.00in /  0mm
09:14 65.9 °F /  18.8 °C 60.6 °F /  15.9 °C 30.02in /  1016.5hPa ESE 4.0mph /  6.4km/h 11.0mph /  17.7km/h 83% 0.00in /  0mm
09:19 65.8 °F /  18.8 °C 60.5 °F /  15.8 °C 30.02in /  1016.5hPa ESE 6.0mph /  9.7km/h 9.0mph /  14.5km/h 83% 0.00in /  0mm
09:24 65.6 °F /  18.7 °C 60.6 °F /  15.9 °C 30.02in /  1016.5hPa ESE 7.0mph /  11.3km/h 8.0mph /  12.9km/h 84% 0.00in /  0mm
09:29 65.6 °F /  18.7 °C 60.6 °F /  15.9 °C 30.03in /  1016.8hPa ESE 7.0mph /  11.3km/h 10.0mph /  16.1km/h 84% 0.00in /  0mm
09:34 65.5 °F /  18.6 °C 60.9 °F /  16.1 °C 30.03in /  1016.8hPa ESE 8.0mph /  12.9km/h 9.0mph /  14.5km/h 85% 0.00in /  0mm
09:39 65.4 °F /  18.6 °C 60.8 °F /  16 °C 30.03in /  1016.8hPa ESE 6.0mph /  9.7km/h 9.0mph /  14.5km/h 85% 0.00in /  0mm
09:44 65.4 °F /  18.6 °C 61.1 °F /  16.2 °C 30.03in /  1016.8hPa SE 8.0mph /  12.9km/h 14.0mph /  22.5km/h 86% 0.00in /  0mm
09:49 65.5 °F /  18.6 °C 61.2 °F /  16.2 °C 30.03in /  1016.8hPa ESE 6.0mph /  9.7km/h 11.0mph /  17.7km/h 86% 0.00in /  0mm
09:54 65.5 °F /  18.6 °C 61.2 °F /  16.2 °C 30.03in /  1016.8hPa ESE 11.0mph /  17.7km/h 15.0mph /  24.1km/h 86% 0.00in /  0mm
09:59 65.6 °F /  18.7 °C 61.3 °F /  16.3 °C 30.03in /  1016.8hPa SE 5.0mph /  8km/h 10.0mph /  16.1km/h 86% 0.00in /  0mm
10:04 65.8 °F /  18.8 °C 61.5 °F /  16.4 °C 30.03in /  1016.8hPa ESE 6.0mph /  9.7km/h 12.0mph /  19.3km/h 86% 0.00in /  0mm
10:09 65.9 °F /  18.8 °C 61.6 °F /  16.4 °C 30.03in /  1016.8hPa ESE 11.0mph /  17.7km/h 11.0mph /  17.7km/h 86% 0.00in /  0mm
10:14 65.9 °F /  18.8 °C 61.6 °F /  16.4 °C 30.04in /  1017.2hPa SE 11.0mph /  17.7km/h 11.0mph /  17.7km/h 86% 0.00in /  0mm
10:19 65.9 °F /  18.8 °C 61.6 °F /  16.4 °C 30.03in /  1016.8hPa ESE 7.0mph /  11.3km/h 16.0mph /  25.7km/h 86% 0.00in /  0mm
10:24 65.9 °F /  18.8 °C 61.6 °F /  16.4 °C 30.03in /  1016.8hPa East 8.0mph /  12.9km/h 14.0mph /  22.5km/h 86% 0.00in /  0mm
10:29 66.0 °F /  18.9 °C 61.7 °F /  16.5 °C 30.03in /  1016.8hPa ESE 13.0mph /  20.9km/h 14.0mph /  22.5km/h 86% 0.00in /  0mm
10:34 66.2 °F /  19 °C 61.9 °F /  16.6 °C 30.03in /  1016.8hPa East 12.0mph /  19.3km/h 14.0mph /  22.5km/h 86% 0.00in /  0mm
10:39 66.3 °F /  19.1 °C 61.7 °F /  16.5 °C 30.03in /  1016.8hPa ESE 9.0mph /  14.5km/h 17.0mph /  27.4km/h 85% 0.00in /  0mm
10:40 66.3 °F /  19.1 °C 61.7 °F /  16.5 °C 30.03in /  1016.8hPa ESE 12.0mph /  19.3km/h 17.0mph /  27.4km/h 85% 0.00in /  0mm
10:45 66.4 °F /  19.1 °C 61.8 °F /  16.6 °C 30.03in /  1016.8hPa SE 11.0mph /  17.7km/h 14.0mph /  22.5km/h 85% 0.00in /  0mm
10:50 66.6 °F /  19.2 °C 62.0 °F /  16.7 °C 30.03in /  1016.8hPa ESE 9.0mph /  14.5km/h 13.0mph /  20.9km/h 85% 0.00in /  0mm
10:55 66.6 °F /  19.2 °C 62.0 °F /  16.7 °C 30.03in /  1016.8hPa ESE 15.0mph /  24.1km/h 15.0mph /  24.1km/h 85% 0.00in /  0mm
11:00 66.5 °F /  19.2 °C 61.5 °F /  16.4 °C 30.04in /  1017.2hPa ESE 10.0mph /  16.1km/h 14.0mph /  22.5km/h 84% 0.00in /  0mm
11:05 66.6 °F /  19.2 °C 61.6 °F /  16.4 °C 30.04in /  1017.2hPa SE 20.0mph /  32.2km/h 20.0mph /  32.2km/h 84% 0.00in /  0mm
11:10 66.6 °F /  19.2 °C 61.6 °F /  16.4 °C 30.04in /  1017.2hPa ESE 9.0mph /  14.5km/h 13.0mph /  20.9km/h 84% 0.00in /  0mm
11:15 66.7 °F /  19.3 °C 61.7 °F /  16.5 °C 30.04in /  1017.2hPa ESE 8.0mph /  12.9km/h 12.0mph /  19.3km/h 84% 0.00in /  0mm
11:20 66.7 °F /  19.3 °C 61.7 °F /  16.5 °C 30.05in /  1017.5hPa SSE 13.0mph /  20.9km/h 17.0mph /  27.4km/h 84% 0.00in /  0mm
11:25 66.7 °F /  19.3 °C 62.0 °F /  16.7 °C 30.05in /  1017.5hPa SE 11.0mph /  17.7km/h 16.0mph /  25.7km/h 85% 0.00in /  0mm
11:30 66.7 °F /  19.3 °C 62.0 °F /  16.7 °C 30.06in /  1017.8hPa SE 13.0mph /  20.9km/h 15.0mph /  24.1km/h 85% 0.00in /  0mm
11:35 66.7 °F /  19.3 °C 62.0 °F /  16.7 °C 30.06in /  1017.8hPa SE 8.0mph /  12.9km/h 15.0mph /  24.1km/h 85% 0.00in /  0mm
11:36 66.7 °F /  19.3 °C 62.0 °F /  16.7 °C 30.06in /  1017.8hPa ESE 8.0mph /  12.9km/h 15.0mph /  24.1km/h 85% 0.00in /  0mm
11:41 66.6 °F /  19.2 °C 62.0 °F /  16.7 °C 30.06in /  1017.8hPa SE 8.0mph /  12.9km/h 19.0mph /  30.6km/h 85% 0.00in /  0mm
11:46 66.3 °F /  19.1 °C 62.0 °F /  16.7 °C 30.06in /  1017.8hPa SE 13.0mph /  20.9km/h 13.0mph /  20.9km/h 86% 0.00in /  0mm
11:51 66.2 °F /  19 °C 62.2 °F /  16.8 °C 30.06in /  1017.8hPa SSE 8.0mph /  12.9km/h 13.0mph /  20.9km/h 87% 0.00in /  0mm
11:56 66.0 °F /  18.9 °C 62.0 °F /  16.7 °C 30.07in /  1018.2hPa SSE 6.0mph /  9.7km/h 9.0mph /  14.5km/h 87% 0.00in /  0mm
12:01 66.0 °F /  18.9 °C 62.3 °F /  16.8 °C 30.07in /  1018.2hPa SE 5.0mph /  8km/h 12.0mph /  19.3km/h 88% 0.00in /  0mm
12:06 66.0 °F /  18.9 °C 62.3 °F /  16.8 °C 30.07in /  1018.2hPa SSE 4.0mph /  6.4km/h 12.0mph /  19.3km/h 88% 0.00in /  0mm
12:11 66.0 °F /  18.9 °C 62.3 °F /  16.8 °C 30.07in /  1018.2hPa East 9.0mph /  14.5km/h 11.0mph /  17.7km/h 88% 0.00in /  0mm
12:16 66.1 °F /  18.9 °C 62.5 °F /  16.9 °C 30.07in /  1018.2hPa ESE 4.0mph /  6.4km/h 10.0mph /  16.1km/h 88% 0.00in /  0mm
12:21 66.1 °F /  18.9 °C 62.5 °F /  16.9 °C 30.08in /  1018.5hPa SE 7.0mph /  11.3km/h 9.0mph /  14.5km/h 88% 0.00in /  0mm
12:26 66.1 °F /  18.9 °C 62.8 °F /  17.1 °C 30.08in /  1018.5hPa ESE 10.0mph /  16.1km/h 10.0mph /  16.1km/h 89% 0.00in /  0mm
12:31 66.0 °F /  18.9 °C 62.7 °F /  17.1 °C 30.08in /  1018.5hPa ESE 5.0mph /  8km/h 9.0mph /  14.5km/h 89% 0.00in /  0mm
12:36 65.9 °F /  18.8 °C 62.6 °F /  17 °C 30.08in /  1018.5hPa SSE 6.0mph /  9.7km/h 7.0mph /  11.3km/h 89% 0.00in /  0mm
12:41 65.8 °F /  18.8 °C 62.8 °F /  17.1 °C 30.08in /  1018.5hPa SE 4.0mph /  6.4km/h 8.0mph /  12.9km/h 90% 0.04in /  1.02mm
12:42 65.7 °F /  18.7 °C 62.7 °F /  17.1 °C 30.08in /  1018.5hPa ESE 4.0mph /  6.4km/h 8.0mph /  12.9km/h 90% 0.04in /  1.02mm
12:47 65.7 °F /  18.7 °C 62.7 °F /  17.1 °C 30.08in /  1018.5hPa ESE 4.0mph /  6.4km/h 6.0mph /  9.7km/h 90% 0.04in /  1.02mm
12:52 65.6 °F /  18.7 °C 62.9 °F /  17.2 °C 30.08in /  1018.5hPa SE 5.0mph /  8km/h 6.0mph /  9.7km/h 91% 0.07in /  1.78mm
12:57 65.5 °F /  18.6 °C 62.8 °F /  17.1 °C 30.08in /  1018.5hPa SE 3.0mph /  4.8km/h 5.0mph /  8km/h 91% 0.07in /  1.78mm
13:03 65.5 °F /  18.6 °C 62.8 °F /  17.1 °C 30.08in /  1018.5hPa ESE 4.0mph /  6.4km/h 6.0mph /  9.7km/h 91% 0.07in /  1.78mm
13:08 65.5 °F /  18.6 °C 62.8 °F /  17.1 °C 30.08in /  1018.5hPa ESE 5.0mph /  8km/h 8.0mph /  12.9km/h 91% 0.07in /  1.78mm
13:13 65.5 °F /  18.6 °C 63.1 °F /  17.3 °C 30.08in /  1018.5hPa SE 6.0mph /  9.7km/h 9.0mph /  14.5km/h 92% 0.13in /  3.3mm
13:18 65.4 °F /  18.6 °C 63.0 °F /  17.2 °C 30.08in /  1018.5hPa ESE 5.0mph /  8km/h 8.0mph /  12.9km/h 92% 0.10in /  2.54mm
13:23 65.3 °F /  18.5 °C 62.9 °F /  17.2 °C 30.08in /  1018.5hPa ESE 7.0mph /  11.3km/h 10.0mph /  16.1km/h 92% 0.18in /  4.57mm
13:28 65.2 °F /  18.4 °C 62.8 °F /  17.1 °C 30.07in /  1018.2hPa ESE 5.0mph /  8km/h 10.0mph /  16.1km/h 92% 0.13in /  3.3mm
13:33 65.2 °F /  18.4 °C 62.8 °F /  17.1 °C 30.07in /  1018.2hPa SE 5.0mph /  8km/h 11.0mph /  17.7km/h 92% 0.08in /  2.03mm
13:38 65.2 °F /  18.4 °C 62.5 °F /  16.9 °C 30.07in /  1018.2hPa SE 7.0mph /  11.3km/h 14.0mph /  22.5km/h 91% 0.08in /  2.03mm
13:43 65.2 °F /  18.4 °C 62.5 °F /  16.9 °C 30.07in /  1018.2hPa ESE 7.0mph /  11.3km/h 13.0mph /  20.9km/h 91% 0.07in /  1.78mm
13:48 65.2 °F /  18.4 °C 62.8 °F /  17.1 °C 30.07in /  1018.2hPa SE 12.0mph /  19.3km/h 12.0mph /  19.3km/h 92% 0.10in /  2.54mm
13:53 65.2 °F /  18.4 °C 62.8 °F /  17.1 °C 30.07in /  1018.2hPa SE 7.0mph /  11.3km/h 10.0mph /  16.1km/h 92% 0.11in /  2.79mm
13:58 65.2 °F /  18.4 °C 62.8 °F /  17.1 °C 30.07in /  1018.2hPa SE 5.0mph /  8km/h 9.0mph /  14.5km/h 92% 0.13in /  3.3mm
14:03 65.2 °F /  18.4 °C 63.1 °F /  17.3 °C 30.07in /  1018.2hPa SE 10.0mph /  16.1km/h 12.0mph /  19.3km/h 93% 0.10in /  2.54mm
14:08 65.3 °F /  18.5 °C 62.9 °F /  17.2 °C 30.07in /  1018.2hPa South 8.0mph /  12.9km/h 10.0mph /  16.1km/h 92% 0.10in /  2.54mm
14:13 65.3 °F /  18.5 °C 63.2 °F /  17.3 °C 30.08in /  1018.5hPa ESE 15.0mph /  24.1km/h 15.0mph /  24.1km/h 93% 0.11in /  2.79mm
14:18 65.1 °F /  18.4 °C 62.7 °F /  17.1 °C 30.07in /  1018.2hPa SE 8.0mph /  12.9km/h 14.0mph /  22.5km/h 92% 0.23in /  5.84mm
14:23 65.0 °F /  18.3 °C 62.6 °F /  17 °C 30.07in /  1018.2hPa SE 12.0mph /  19.3km/h 15.0mph /  24.1km/h 92% 0.26in /  6.6mm
14:28 64.8 °F /  18.2 °C 62.4 °F /  16.9 °C 30.07in /  1018.2hPa ESE 15.0mph /  24.1km/h 22.0mph /  35.4km/h 92% 0.09in /  2.29mm
14:33 64.9 °F /  18.3 °C 62.5 °F /  16.9 °C 30.06in /  1017.8hPa SE 10.0mph /  16.1km/h 15.0mph /  24.1km/h 92% 0.09in /  2.29mm
14:38 64.9 °F /  18.3 °C 62.2 °F /  16.8 °C 30.06in /  1017.8hPa ESE 15.0mph /  24.1km/h 16.0mph /  25.7km/h 91% 0.06in /  1.52mm
14:43 65.0 °F /  18.3 °C 62.3 °F /  16.8 °C 30.06in /  1017.8hPa SE 14.0mph /  22.5km/h 20.0mph /  32.2km/h 91% 0.04in /  1.02mm
14:48 65.0 °F /  18.3 °C 62.3 °F /  16.8 °C 30.06in /  1017.8hPa SE 9.0mph /  14.5km/h 16.0mph /  25.7km/h 91% 0.00in /  0mm
14:53 64.8 °F /  18.2 °C 62.1 °F /  16.7 °C 30.06in /  1017.8hPa SE 13.0mph /  20.9km/h 15.0mph /  24.1km/h 91% 0.00in /  0mm
14:58 64.6 °F /  18.1 °C 61.6 °F /  16.4 °C 30.05in /  1017.5hPa SE 11.0mph /  17.7km/h 18.0mph /  29km/h 90% 0.00in /  0mm
15:03 64.3 °F /  17.9 °C 61.6 °F /  16.4 °C 30.04in /  1017.2hPa ESE 13.0mph /  20.9km/h 16.0mph /  25.7km/h 91% 0.00in /  0mm
15:08 64.2 °F /  17.9 °C 61.5 °F /  16.4 °C 30.03in /  1016.8hPa ESE 14.0mph /  22.5km/h 19.0mph /  30.6km/h 91% 0.00in /  0mm
15:13 64.1 °F /  17.8 °C 61.4 °F /  16.3 °C 30.03in /  1016.8hPa SE 13.0mph /  20.9km/h 16.0mph /  25.7km/h 91% 0.00in /  0mm
15:18 63.9 °F /  17.7 °C 61.2 °F /  16.2 °C 30.02in /  1016.5hPa ESE 13.0mph /  20.9km/h 18.0mph /  29km/h 91% 0.00in /  0mm
15:23 63.8 °F /  17.7 °C 61.1 °F /  16.2 °C 30.01in /  1016.1hPa ESE 13.0mph /  20.9km/h 19.0mph /  30.6km/h 91% 0.00in /  0mm
15:29 63.6 °F /  17.6 °C 60.9 °F /  16.1 °C 30.02in /  1016.5hPa ESE 11.0mph /  17.7km/h 19.0mph /  30.6km/h 91% 0.00in /  0mm
15:34 63.6 °F /  17.6 °C 61.2 °F /  16.2 °C 30.02in /  1016.5hPa ESE 9.0mph /  14.5km/h 19.0mph /  30.6km/h 92% 0.00in /  0mm
15:39 63.5 °F /  17.5 °C 61.1 °F /  16.2 °C 30.03in /  1016.8hPa SSE 11.0mph /  17.7km/h 17.0mph /  27.4km/h 92% 0.00in /  0mm
15:44 63.6 °F /  17.6 °C 61.2 °F /  16.2 °C 30.04in /  1017.2hPa SE 6.0mph /  9.7km/h 15.0mph /  24.1km/h 92% 0.00in /  0mm
15:49 63.7 °F /  17.6 °C 61.3 °F /  16.3 °C 30.02in /  1016.5hPa SE 18.0mph /  29km/h 18.0mph /  29km/h 92% 0.00in /  0mm
15:54 63.9 °F /  17.7 °C 61.5 °F /  16.4 °C 30.01in /  1016.1hPa East 17.0mph /  27.4km/h 20.0mph /  32.2km/h 92% 0.00in /  0mm
15:59 63.8 °F /  17.7 °C 61.4 °F /  16.3 °C 30.01in /  1016.1hPa ESE 10.0mph /  16.1km/h 19.0mph /  30.6km/h 92% 0.00in /  0mm
16:04 63.8 °F /  17.7 °C 61.4 °F /  16.3 °C 30.01in /  1016.1hPa ESE 15.0mph /  24.1km/h 18.0mph /  29km/h 92% 0.00in /  0mm
16:09 63.7 °F /  17.6 °C 61.6 °F /  16.4 °C 30.01in /  1016.1hPa ESE 15.0mph /  24.1km/h 17.0mph /  27.4km/h 93% 0.00in /  0mm
16:14 63.6 °F /  17.6 °C 61.5 °F /  16.4 °C 30.00in /  1015.8hPa ESE 13.0mph /  20.9km/h 18.0mph /  29km/h 93% 0.00in /  0mm
16:19 63.6 °F /  17.6 °C 61.5 °F /  16.4 °C 29.99in /  1015.5hPa ESE 14.0mph /  22.5km/h 18.0mph /  29km/h 93% 0.00in /  0mm
16:24 63.6 °F /  17.6 °C 61.5 °F /  16.4 °C 29.99in /  1015.5hPa ESE 21.0mph /  33.8km/h 21.0mph /  33.8km/h 93% 0.00in /  0mm
16:29 63.6 °F /  17.6 °C 61.5 °F /  16.4 °C 29.96in /  1014.4hPa East 18.0mph /  29km/h 18.0mph /  29km/h 93% 0.00in /  0mm
16:34 63.5 °F /  17.5 °C 61.4 °F /  16.3 °C 29.94in /  1013.8hPa ESE 9.0mph /  14.5km/h 26.0mph /  41.8km/h 93% 0.00in /  0mm
16:40 63.5 °F /  17.5 °C 61.4 °F /  16.3 °C 29.96in /  1014.4hPa SE 9.0mph /  14.5km/h 19.0mph /  30.6km/h 93% 0.00in /  0mm
16:45 63.5 °F /  17.5 °C 61.1 °F /  16.2 °C 29.97in /  1014.8hPa SSE 7.0mph /  11.3km/h 11.0mph /  17.7km/h 92% 0.00in /  0mm
16:50 63.6 °F /  17.6 °C 61.2 °F /  16.2 °C 29.98in /  1015.1hPa SE 3.0mph /  4.8km/h 7.0mph /  11.3km/h 92% 0.00in /  0mm
16:55 63.8 °F /  17.7 °C 61.4 °F /  16.3 °C 29.98in /  1015.1hPa South 2.0mph /  3.2km/h 8.0mph /  12.9km/h 92% 0.00in /  0mm
17:00 64.0 °F /  17.8 °C 61.6 °F /  16.4 °C 29.99in /  1015.5hPa SW 4.0mph /  6.4km/h 13.0mph /  20.9km/h 92% 0.00in /  0mm
17:05 64.1 °F /  17.8 °C 61.4 °F /  16.3 °C 29.99in /  1015.5hPa SSE 5.0mph /  8km/h 8.0mph /  12.9km/h 91% 0.00in /  0mm
17:10 64.2 °F /  17.9 °C 61.5 °F /  16.4 °C 29.99in /  1015.5hPa SSE 9.0mph /  14.5km/h 9.0mph /  14.5km/h 91% 0.00in /  0mm
17:15 64.3 °F /  17.9 °C 61.6 °F /  16.4 °C 29.98in /  1015.1hPa SSE 4.0mph /  6.4km/h 7.0mph /  11.3km/h 91% 0.00in /  0mm
17:20 64.5 °F /  18.1 °C 61.8 °F /  16.6 °C 29.98in /  1015.1hPa SSW 4.0mph /  6.4km/h 9.0mph /  14.5km/h 91% 0.00in /  0mm
17:25 64.6 °F /  18.1 °C 61.9 °F /  16.6 °C 29.99in /  1015.5hPa South 5.0mph /  8km/h 7.0mph /  11.3km/h 91% 0.00in /  0mm
17:30 64.7 °F /  18.2 °C 61.7 °F /  16.5 °C 30.00in /  1015.8hPa SSE 8.0mph /  12.9km/h 9.0mph /  14.5km/h 90% 0.00in /  0mm
17:35 64.8 °F /  18.2 °C 61.8 °F /  16.6 °C 30.00in /  1015.8hPa SSE 5.0mph /  8km/h 8.0mph /  12.9km/h 90% 0.00in /  0mm
17:36 64.9 °F /  18.3 °C 61.9 °F /  16.6 °C 30.00in /  1015.8hPa South 5.0mph /  8km/h 8.0mph /  12.9km/h 90% 0.00in /  0mm
17:41 64.9 °F /  18.3 °C 61.9 °F /  16.6 °C 30.00in /  1015.8hPa SSE 9.0mph /  14.5km/h 9.0mph /  14.5km/h 90% 0.00in /  0mm
17:46 65.0 °F /  18.3 °C 62.0 °F /  16.7 °C 29.99in /  1015.5hPa SE 10.0mph /  16.1km/h 11.0mph /  17.7km/h 90% 0.00in /  0mm
17:51 65.1 °F /  18.4 °C 62.1 °F /  16.7 °C 29.98in /  1015.1hPa SE 8.0mph /  12.9km/h 10.0mph /  16.1km/h 90% 0.00in /  0mm
17:56 65.2 °F /  18.4 °C 62.2 °F /  16.8 °C 29.98in /  1015.1hPa SE 7.0mph /  11.3km/h 10.0mph /  16.1km/h 90% 0.00in /  0mm
18:01 65.3 °F /  18.5 °C 62.3 °F /  16.8 °C 29.97in /  1014.8hPa ESE 7.0mph /  11.3km/h 10.0mph /  16.1km/h 90% 0.00in /  0mm
18:06 65.3 °F /  18.5 °C 62.0 °F /  16.7 °C 29.97in /  1014.8hPa SE 8.0mph /  12.9km/h 12.0mph /  19.3km/h 89% 0.00in /  0mm
18:11 65.4 °F /  18.6 °C 62.1 °F /  16.7 °C 29.98in /  1015.1hPa ESE 13.0mph /  20.9km/h 13.0mph /  20.9km/h 89% 0.00in /  0mm
18:16 65.4 °F /  18.6 °C 61.8 °F /  16.6 °C 29.98in /  1015.1hPa SSE 10.0mph /  16.1km/h 12.0mph /  19.3km/h 88% 0.00in /  0mm
18:22 65.5 °F /  18.6 °C 61.9 °F /  16.6 °C 29.98in /  1015.1hPa SSE 9.0mph /  14.5km/h 13.0mph /  20.9km/h 88% 0.00in /  0mm
18:27 65.6 °F /  18.7 °C 62.3 °F /  16.8 °C 29.98in /  1015.1hPa SE 11.0mph /  17.7km/h 14.0mph /  22.5km/h 89% 0.00in /  0mm
18:32 65.6 °F /  18.7 °C 62.3 °F /  16.8 °C 29.98in /  1015.1hPa ESE 13.0mph /  20.9km/h 18.0mph /  29km/h 89% 0.00in /  0mm
18:37 65.6 °F /  18.7 °C 62.3 °F /  16.8 °C 29.98in /  1015.1hPa SE 6.0mph /  9.7km/h 13.0mph /  20.9km/h 89% 0.00in /  0mm
18:42 65.5 °F /  18.6 °C 62.2 °F /  16.8 °C 29.98in /  1015.1hPa SSE 11.0mph /  17.7km/h 12.0mph /  19.3km/h 89% 0.00in /  0mm
18:47 65.5 °F /  18.6 °C 62.2 °F /  16.8 °C 29.98in /  1015.1hPa SE 8.0mph /  12.9km/h 13.0mph /  20.9km/h 89% 0.00in /  0mm
18:52 65.5 °F /  18.6 °C 62.5 °F /  16.9 °C 29.98in /  1015.1hPa SSE 6.0mph /  9.7km/h 12.0mph /  19.3km/h 90% 0.00in /  0mm
18:57 65.5 °F /  18.6 °C 62.5 °F /  16.9 °C 29.98in /  1015.1hPa ESE 7.0mph /  11.3km/h 12.0mph /  19.3km/h 90% 0.00in /  0mm
19:02 65.4 °F /  18.6 °C 62.4 °F /  16.9 °C 29.99in /  1015.5hPa ESE 11.0mph /  17.7km/h 15.0mph /  24.1km/h 90% 0.00in /  0mm
19:07 65.5 °F /  18.6 °C 62.5 °F /  16.9 °C 29.98in /  1015.1hPa SE 5.0mph /  8km/h 11.0mph /  17.7km/h 90% 0.00in /  0mm
19:12 65.4 °F /  18.6 °C 62.4 °F /  16.9 °C 29.98in /  1015.1hPa ESE 8.0mph /  12.9km/h 13.0mph /  20.9km/h 90% 0.00in /  0mm
19:17 65.3 °F /  18.5 °C 62.6 °F /  17 °C 29.99in /  1015.5hPa SE 6.0mph /  9.7km/h 12.0mph /  19.3km/h 91% 0.00in /  0mm
19:22 65.2 °F /  18.4 °C 62.5 °F /  16.9 °C 29.99in /  1015.5hPa SE 7.0mph /  11.3km/h 12.0mph /  19.3km/h 91% 0.00in /  0mm
19:27 65.2 °F /  18.4 °C 62.5 °F /  16.9 °C 29.99in /  1015.5hPa SE 6.0mph /  9.7km/h 8.0mph /  12.9km/h 91% 0.00in /  0mm
19:32 65.2 °F /  18.4 °C 62.5 °F /  16.9 °C 29.99in /  1015.5hPa SE 8.0mph /  12.9km/h 10.0mph /  16.1km/h 91% 0.00in /  0mm
19:37 65.1 °F /  18.4 °C 62.4 °F /  16.9 °C 29.99in /  1015.5hPa SE 5.0mph /  8km/h 12.0mph /  19.3km/h 91% 0.00in /  0mm
19:42 65.0 °F /  18.3 °C 62.3 °F /  16.8 °C 29.99in /  1015.5hPa ESE 5.0mph /  8km/h 10.0mph /  16.1km/h 91% 0.00in /  0mm
19:47 64.9 °F /  18.3 °C 62.2 °F /  16.8 °C 29.99in /  1015.5hPa SE 7.0mph /  11.3km/h 10.0mph /  16.1km/h 91% 0.00in /  0mm
19:52 64.9 °F /  18.3 °C 62.2 °F /  16.8 °C 29.99in /  1015.5hPa ESE 8.0mph /  12.9km/h 10.0mph /  16.1km/h 91% 0.00in /  0mm
19:57 64.8 °F /  18.2 °C 62.1 °F /  16.7 °C 29.99in /  1015.5hPa SE 5.0mph /  8km/h 7.0mph /  11.3km/h 91% 0.00in /  0mm
20:02 64.7 °F /  18.2 °C 62.0 °F /  16.7 °C 30.00in /  1015.8hPa SE 5.0mph /  8km/h 9.0mph /  14.5km/h 91% 0.00in /  0mm
20:07 64.8 °F /  18.2 °C 62.1 °F /  16.7 °C 29.99in /  1015.5hPa ESE 7.0mph /  11.3km/h 8.0mph /  12.9km/h 91% 0.00in /  0mm
20:12 64.7 °F /  18.2 °C 62.0 °F /  16.7 °C 30.00in /  1015.8hPa SE 5.0mph /  8km/h 7.0mph /  11.3km/h 91% 0.00in /  0mm
20:18 64.6 °F /  18.1 °C 61.9 °F /  16.6 °C 29.99in /  1015.5hPa SE 3.0mph /  4.8km/h 9.0mph /  14.5km/h 91% 0.00in /  0mm
20:23 64.4 °F /  18 °C 61.7 °F /  16.5 °C 29.99in /  1015.5hPa ESE 5.0mph /  8km/h 8.0mph /  12.9km/h 91% 0.00in /  0mm
20:28 64.4 °F /  18 °C 61.7 °F /  16.5 °C 29.99in /  1015.5hPa ESE 6.0mph /  9.7km/h 6.0mph /  9.7km/h 91% 0.00in /  0mm
20:33 64.4 °F /  18 °C 61.7 °F /  16.5 °C 29.99in /  1015.5hPa SE 5.0mph /  8km/h 7.0mph /  11.3km/h 91% 0.00in /  0mm
20:38 64.3 °F /  17.9 °C 61.6 °F /  16.4 °C 29.99in /  1015.5hPa ESE 7.0mph /  11.3km/h 8.0mph /  12.9km/h 91% 0.00in /  0mm
20:43 64.2 °F /  17.9 °C 61.5 °F /  16.4 °C 29.99in /  1015.5hPa SE 4.0mph /  6.4km/h 7.0mph /  11.3km/h 91% 0.00in /  0mm
20:48 64.1 °F /  17.8 °C 61.4 °F /  16.3 °C 29.99in /  1015.5hPa ESE 4.0mph /  6.4km/h 7.0mph /  11.3km/h 91% 0.00in /  0mm
20:53 64.0 °F /  17.8 °C 61.6 °F /  16.4 °C 29.99in /  1015.5hPa SE 3.0mph /  4.8km/h 6.0mph /  9.7km/h 92% 0.00in /  0mm
20:58 63.9 °F /  17.7 °C 61.5 °F /  16.4 °C 29.99in /  1015.5hPa SE 5.0mph /  8km/h 6.0mph /  9.7km/h 92% 0.00in /  0mm
21:03 63.7 °F /  17.6 °C 61.3 °F /  16.3 °C 29.99in /  1015.5hPa ESE 3.0mph /  4.8km/h 4.0mph /  6.4km/h 92% 0.00in /  0mm
21:08 63.6 °F /  17.6 °C 61.2 °F /  16.2 °C 29.99in /  1015.5hPa SE 4.0mph /  6.4km/h 6.0mph /  9.7km/h 92% 0.00in /  0mm
21:13 63.5 °F /  17.5 °C 61.1 °F /  16.2 °C 29.99in /  1015.5hPa SE 4.0mph /  6.4km/h 6.0mph /  9.7km/h 92% 0.00in /  0mm
21:18 63.3 °F /  17.4 °C 60.9 °F /  16.1 °C 29.99in /  1015.5hPa ESE 4.0mph /  6.4km/h 8.0mph /  12.9km/h 92% 0.00in /  0mm
21:23 63.3 °F /  17.4 °C 60.9 °F /  16.1 °C 29.99in /  1015.5hPa SE 4.0mph /  6.4km/h 7.0mph /  11.3km/h 92% 0.00in /  0mm
21:28 63.3 °F /  17.4 °C 60.9 °F /  16.1 °C 29.99in /  1015.5hPa ESE 3.0mph /  4.8km/h 7.0mph /  11.3km/h 92% 0.00in /  0mm
21:33 63.2 °F /  17.3 °C 60.8 °F /  16 °C 30.00in /  1015.8hPa ESE 5.0mph /  8km/h 7.0mph /  11.3km/h 92% 0.00in /  0mm
21:38 63.0 °F /  17.2 °C 60.6 °F /  15.9 °C 29.99in /  1015.5hPa SE 3.0mph /  4.8km/h 7.0mph /  11.3km/h 92% 0.00in /  0mm
21:43 62.9 °F /  17.2 °C 60.5 °F /  15.8 °C 29.99in /  1015.5hPa ESE 6.0mph /  9.7km/h 8.0mph /  12.9km/h 92% 0.00in /  0mm
21:48 62.7 °F /  17.1 °C 60.3 °F /  15.7 °C 29.99in /  1015.5hPa ESE 7.0mph /  11.3km/h 8.0mph /  12.9km/h 92% 0.00in /  0mm
21:53 62.6 °F /  17 °C 60.2 °F /  15.7 °C 29.99in /  1015.5hPa ESE 6.0mph /  9.7km/h 9.0mph /  14.5km/h 92% 0.00in /  0mm
21:58 62.5 °F /  16.9 °C 60.5 °F /  15.8 °C 29.99in /  1015.5hPa SE 6.0mph /  9.7km/h 8.0mph /  12.9km/h 93% 0.00in /  0mm
22:03 62.6 °F /  17 °C 60.2 °F /  15.7 °C 29.99in /  1015.5hPa ESE 6.0mph /  9.7km/h 10.0mph /  16.1km/h 92% 0.00in /  0mm
22:08 62.5 °F /  16.9 °C 60.2 °F /  15.7 °C 29.99in /  1015.5hPa ESE 6.0mph /  9.7km/h 9.0mph /  14.5km/h 92% 0.00in /  0mm
22:13 62.4 °F /  16.9 °C 60.0 °F /  15.6 °C 29.99in /  1015.5hPa SE 5.0mph /  8km/h 9.0mph /  14.5km/h 92% 0.00in /  0mm
22:18 62.3 °F /  16.8 °C 60.0 °F /  15.6 °C 30.00in /  1015.8hPa SE 4.0mph /  6.4km/h 8.0mph /  12.9km/h 92% 0.00in /  0mm
22:23 62.2 °F /  16.8 °C 59.8 °F /  15.4 °C 30.00in /  1015.8hPa ESE 5.0mph /  8km/h 7.0mph /  11.3km/h 92% 0.00in /  0mm
22:28 62.1 °F /  16.7 °C 60.1 °F /  15.6 °C 30.00in /  1015.8hPa ESE 4.0mph /  6.4km/h 7.0mph /  11.3km/h 93% 0.00in /  0mm
22:33 62.0 °F /  16.7 °C 60.0 °F /  15.6 °C 30.00in /  1015.8hPa ESE 5.0mph /  8km/h 6.0mph /  9.7km/h 93% 0.00in /  0mm
22:38 62.0 °F /  16.7 °C 60.0 °F /  15.6 °C 30.00in /  1015.8hPa ESE 5.0mph /  8km/h 5.0mph /  8km/h 93% 0.00in /  0mm
22:43 61.9 °F /  16.6 °C 59.9 °F /  15.5 °C 30.00in /  1015.8hPa ESE 5.0mph /  8km/h 7.0mph /  11.3km/h 93% 0.00in /  0mm
22:48 61.8 °F /  16.6 °C 59.8 °F /  15.4 °C 30.00in /  1015.8hPa East 6.0mph /  9.7km/h 6.0mph /  9.7km/h 93% 0.00in /  0mm
22:53 61.7 °F /  16.5 °C 59.7 °F /  15.4 °C 30.00in /  1015.8hPa ESE 5.0mph /  8km/h 9.0mph /  14.5km/h 93% 0.00in /  0mm
22:58 61.6 °F /  16.4 °C 59.6 °F /  15.3 °C 30.00in /  1015.8hPa ESE 6.0mph /  9.7km/h 7.0mph /  11.3km/h 93% 0.00in /  0mm
23:03 61.6 °F /  16.4 °C 59.6 °F /  15.3 °C 30.00in /  1015.8hPa ESE 4.0mph /  6.4km/h 6.0mph /  9.7km/h 93% 0.00in /  0mm
23:09 61.6 °F /  16.4 °C 59.6 °F /  15.3 °C 30.00in /  1015.8hPa ESE 4.0mph /  6.4km/h 6.0mph /  9.7km/h 93% 0.00in /  0mm
23:14 61.7 °F /  16.5 °C 59.7 °F /  15.4 °C 30.00in /  1015.8hPa ESE 3.0mph /  4.8km/h 6.0mph /  9.7km/h 93% 0.00in /  0mm
23:19 61.8 °F /  16.6 °C 59.8 °F /  15.4 °C 30.00in /  1015.8hPa ESE 5.0mph /  8km/h 7.0mph /  11.3km/h 93% 0.00in /  0mm
23:24 61.8 °F /  16.6 °C 59.8 °F /  15.4 °C 30.00in /  1015.8hPa ESE 4.0mph /  6.4km/h 7.0mph /  11.3km/h 93% 0.00in /  0mm
23:29 61.8 °F /  16.6 °C 59.8 °F /  15.4 °C 30.00in /  1015.8hPa ESE 5.0mph /  8km/h 8.0mph /  12.9km/h 93% 0.00in /  0mm
23:34 61.9 °F /  16.6 °C 59.9 °F /  15.5 °C 30.00in /  1015.8hPa ESE 3.0mph /  4.8km/h 7.0mph /  11.3km/h 93% 0.00in /  0mm
23:39 61.9 °F /  16.6 °C 59.9 °F /  15.5 °C 30.00in /  1015.8hPa ESE 6.0mph /  9.7km/h 6.0mph /  9.7km/h 93% 0.00in /  0mm
23:44 61.9 °F /  16.6 °C 59.9 °F /  15.5 °C 30.00in /  1015.8hPa ESE 4.0mph /  6.4km/h 6.0mph /  9.7km/h 93% 0.00in /  0mm
23:49 62.0 °F /  16.7 °C 60.0 °F /  15.6 °C 30.00in /  1015.8hPa SE 3.0mph /  4.8km/h 5.0mph /  8km/h 93% 0.00in /  0mm
23:54 62.0 °F /  16.7 °C 59.7 °F /  15.4 °C 30.00in /  1015.8hPa SE 4.0mph /  6.4km/h 6.0mph /  9.7km/h 92% 0.00in /  0mm
23:59 62.1 °F /  16.7 °C 59.8 °F /  15.4 °C 30.00in /  1015.8hPa SE 3.0mph /  4.8km/h 6.0mph /  9.7km/h 92% 0.00in /  0mm
Compliments of Weather Underground